Time;durP1;ratioP1;P1;durP2;ratioP2;P2;SDS_P1;SDS_P2;PMS_P1;PMS_P2;Temp;Humidity;BMP_temperature;BMP_pressure;BME280_temperature;BME280_humidity;BME280_pressure;Samples;Min_cycle;Max_cycle;Signal;HPM_P1;HPM_P2
2023/04/03 00:01:09;;;;;;;6.00;5.40;;;;;;;1.21;100.00;102917.19;5007792;28;20122;-65
2023/04/03 00:03:35;;;;;;;5.22;4.57;;;;;;;1.12;100.00;102918.78;5006353;28;20034;-64
2023/04/03 00:06:01;;;;;;;6.68;5.32;;;;;;;1.18;100.00;102930.97;5007120;28;20665;-65
2023/04/03 00:08:26;;;;;;;6.22;5.63;;;;;;;1.24;100.00;102925.06;5004055;28;20117;-65
2023/04/03 00:10:51;;;;;;;6.60;5.32;;;;;;;1.36;100.00;102924.09;5005538;28;20052;-64
2023/04/03 00:13:17;;;;;;;7.22;4.63;;;;;;;1.52;100.00;102919.25;5009937;28;20032;-65
2023/04/03 00:15:43;;;;;;;6.18;5.22;;;;;;;1.52;100.00;102921.94;5010276;28;20572;-65
2023/04/03 00:18:09;;;;;;;6.45;5.20;;;;;;;1.53;100.00;102929.09;5008890;28;20089;-65
2023/04/03 00:20:34;;;;;;;5.25;4.75;;;;;;;1.49;100.00;102924.03;5008859;28;20042;-67
2023/04/03 00:23:00;;;;;;;7.95;5.35;;;;;;;1.42;100.00;102930.88;5008085;28;20038;-66
2023/04/03 00:25:26;;;;;;;6.10;4.93;;;;;;;1.40;100.00;102936.44;5027998;28;20092;-65
2023/04/03 00:27:51;;;;;;;5.30;4.45;;;;;;;1.49;100.00;102924.88;5012548;28;20034;-65
2023/04/03 00:30:19;;;;;;;6.00;5.15;;;;;;;1.48;100.00;102935.84;5009078;28;20033;-64
2023/04/03 00:32:46;;;;;;;6.05;4.80;;;;;;;1.47;100.00;102935.00;5008930;28;20038;-65
2023/04/03 00:35:15;;;;;;;6.32;4.63;;;;;;;1.43;100.00;102941.63;5009681;28;20026;-65
2023/04/03 00:37:40;;;;;;;5.38;4.70;;;;;;;1.43;100.00;102944.31;5009102;28;20046;-65
2023/04/03 00:40:07;;;;;;;7.00;4.88;;;;;;;1.71;100.00;102932.16;5010973;28;20095;-65
2023/04/03 00:42:32;;;;;;;5.18;4.63;;;;;;;1.62;100.00;102935.59;5009598;28;20044;-65
2023/04/03 00:44:57;;;;;;;5.75;5.07;;;;;;;1.54;100.00;102947.06;5007682;28;20030;-65
2023/04/03 00:47:23;;;;;;;6.03;5.27;;;;;;;1.50;100.00;102953.69;5007227;28;20029;-64
2023/04/03 00:49:50;;;;;;;5.72;4.68;;;;;;;1.44;100.00;102954.16;5010002;28;20319;-64
2023/04/03 00:52:18;;;;;;;6.47;5.10;;;;;;;1.42;100.00;102958.84;4991661;28;20516;-65
2023/04/03 00:54:47;;;;;;;6.65;5.20;;;;;;;1.37;100.00;102960.16;5009118;28;20160;-64
2023/04/03 00:57:12;;;;;;;;;;;;;;;1.39;100.00;102953.66;5009756;28;20042;-65
2023/04/03 00:59:46;;;;;;;5.50;4.90;;;;;;;1.36;100.00;102962.00;5008739;28;19932;-65
2023/04/03 01:02:12;;;;;;;5.25;4.30;;;;;;;1.49;100.00;102959.22;5009668;28;20029;-65
2023/04/03 01:04:40;;;;;;;5.57;4.63;;;;;;;1.39;100.00;102958.22;5008750;28;20461;-64
2023/04/03 01:07:23;;;;;;;6.32;4.95;;;;;;;1.43;100.00;102955.16;5009300;28;20095;-65
2023/04/03 01:09:51;;;;;;;5.20;4.57;;;;;;;1.48;100.00;102952.09;5009667;28;20045;-65
2023/04/03 01:12:20;;;;;;;5.93;4.30;;;;;;;1.43;100.00;102954.28;5009531;28;20457;-64
2023/04/03 01:14:47;;;;;;;6.10;4.70;;;;;;;1.38;100.00;102960.06;5006923;28;20030;-65
2023/04/03 01:17:30;;;;;;;6.25;5.00;;;;;;;1.51;100.00;102959.97;5008583;28;20029;-65
2023/04/03 01:20:27;;;;;;;4.88;4.32;;;;;;;1.55;100.00;102953.31;4999835;28;20037;-65
2023/04/03 01:23:02;;;;;;;5.90;4.45;;;;;;;1.49;100.00;102957.38;4998243;28;20508;-64
2023/04/03 01:25:27;;;;;;;6.00;4.55;;;;;;;1.49;100.00;102961.94;5008745;28;20037;-65
2023/04/03 01:27:53;;;;;;;5.78;4.63;;;;;;;1.48;100.00;102960.22;5008836;28;20025;-65
2023/04/03 01:30:23;;;;;;;5.25;4.32;;;;;;;1.47;100.00;102961.16;5008987;28;20031;-64
2023/04/03 01:32:48;;;;;;;5.32;4.18;;;;;;;1.53;100.00;102961.56;5007339;28;20034;-65
2023/04/03 01:35:14;;;;;;;4.82;3.88;;;;;;;1.68;100.00;102950.53;5008694;28;20053;-65
2023/04/03 01:37:39;;;;;;;5.88;4.00;;;;;;;1.68;100.00;102945.97;5007740;28;20587;-65
2023/04/03 01:40:05;;;;;;;5.90;4.40;;;;;;;1.45;100.00;102953.19;5009075;28;20468;-65
2023/04/03 01:42:30;;;;;;;5.72;4.25;;;;;;;1.61;100.00;102952.84;5010181;28;20080;-65
2023/04/03 01:44:56;;;;;;;5.10;4.32;;;;;;;1.44;100.00;102956.00;5006814;28;20372;-65
2023/04/03 01:47:21;;;;;;;5.53;4.32;;;;;;;1.30;100.00;102960.63;5007596;28;20179;-65
2023/04/03 01:49:47;;;;;;;6.53;4.20;;;;;;;1.33;100.00;102956.84;5008289;28;20030;-65
2023/04/03 01:52:12;;;;;;;4.80;4.30;;;;;;;1.25;100.00;102956.56;5005842;28;20576;-65
2023/04/03 01:54:37;;;;;;;6.40;4.38;;;;;;;1.29;100.00;102958.06;5006417;28;20481;-65
2023/04/03 01:57:03;;;;;;;5.22;4.72;;;;;;;1.14;100.00;102959.25;5008733;28;20034;-64
2023/04/03 01:59:28;;;;;;;5.78;4.15;;;;;;;1.21;100.00;102964.03;5008299;28;20061;-65
2023/04/03 02:01:53;;;;;;;4.90;4.32;;;;;;;1.29;100.00;102963.47;5008723;28;20030;-65
2023/04/03 02:04:18;;;;;;;5.72;4.40;;;;;;;1.03;100.00;102968.19;5006846;28;20097;-65
2023/04/03 02:06:44;;;;;;;5.38;4.25;;;;;;;1.10;100.00;102968.56;5007829;28;20033;-65
2023/04/03 02:09:09;;;;;;;4.57;3.50;;;;;;;1.53;100.00;102963.44;5007972;28;20034;-65
2023/04/03 02:11:35;;;;;;;5.57;3.97;;;;;;;1.41;100.00;102967.06;5008288;28;20042;-65
2023/04/03 02:14:00;;;;;;;5.60;4.05;;;;;;;1.40;100.00;102968.06;5006979;28;20449;-64
2023/04/03 02:16:26;;;;;;;5.45;3.90;;;;;;;1.46;100.00;102967.56;5009201;28;20113;-64
2023/04/03 02:18:51;;;;;;;5.13;4.10;;;;;;;1.59;100.00;102964.78;5008234;28;20065;-65
2023/04/03 02:21:16;;;;;;;3.55;3.10;;;;;;;1.51;100.00;102971.66;5006859;28;20034;-64
2023/04/03 02:23:41;;;;;;;4.95;3.95;;;;;;;1.42;100.00;102963.38;5006502;28;20034;-65
2023/04/03 02:26:10;;;;;;;5.35;4.13;;;;;;;1.50;100.00;102978.06;5007399;28;20120;-64
2023/04/03 02:28:36;;;;;;;3.90;3.50;;;;;;;1.40;100.00;102971.63;5006957;28;20028;-65
2023/04/03 02:31:02;;;;;;;4.30;3.80;;;;;;;1.30;100.00;102971.47;5006922;28;20030;-64
2023/04/03 02:33:27;;;;;;;4.65;3.60;;;;;;;1.37;100.00;102971.00;5008477;28;20030;-65
2023/04/03 02:35:55;;;;;;;5.13;4.15;;;;;;;1.39;100.00;102975.31;5006212;28;20044;-65
2023/04/03 02:38:21;;;;;;;6.50;4.50;;;;;;;1.36;100.00;102982.81;5007794;28;20088;-65
2023/04/03 02:40:46;;;;;;;5.50;4.05;;;;;;;1.37;100.00;102985.41;5008558;28;20141;-65
2023/04/03 02:43:11;;;;;;;7.53;3.70;;;;;;;1.52;100.00;102980.63;5055947;22;20284;-65
2023/04/03 02:45:36;;;;;;;5.35;4.13;;;;;;;1.46;100.00;102986.53;5007575;28;20030;-64
2023/04/03 02:48:02;;;;;;;5.72;3.83;;;;;;;1.51;100.00;102984.31;5009005;28;20030;-65
2023/04/03 02:50:27;;;;;;;6.97;3.83;;;;;;;1.27;100.00;102989.81;5027439;28;20177;-65
2023/04/03 02:52:52;;;;;;;4.95;4.05;;;;;;;1.29;100.00;102985.13;5026026;28;20406;-65
2023/04/03 02:55:17;;;;;;;6.10;4.00;;;;;;;1.23;100.00;102991.03;5010304;28;20120;-65
2023/04/03 02:57:43;;;;;;;4.05;3.58;;;;;;;1.08;100.00;102986.78;5023291;28;20379;-65
2023/04/03 03:00:09;;;;;;;4.63;3.58;;;;;;;1.16;100.00;102995.16;5022653;28;20065;-65
2023/04/03 03:02:35;;;;;;;5.82;4.13;;;;;;;1.08;100.00;102987.63;5026414;28;20052;-65
2023/04/03 03:05:00;;;;;;;4.63;3.97;;;;;;;0.94;100.00;102993.22;5022180;28;20018;-64
2023/04/03 03:07:25;;;;;;;3.88;3.42;;;;;;;0.85;100.00;102991.19;5027022;28;20030;-65
2023/04/03 03:09:51;;;;;;;5.20;3.72;;;;;;;0.93;100.00;102989.66;5026073;28;20088;-65
2023/04/03 03:12:21;;;;;;;5.57;3.88;;;;;;;0.87;100.00;102981.13;5026658;28;20035;-65
2023/04/03 03:14:46;;;;;;;4.28;3.70;;;;;;;0.80;100.00;102983.41;5007790;28;20029;-65
2023/04/03 03:17:11;;;;;;;4.20;3.80;;;;;;;0.90;100.00;102983.59;5008954;28;20421;-65
2023/04/03 03:19:37;;;;;;;4.10;3.03;;;;;;;1.02;100.00;102986.25;5021096;28;20029;-65
2023/04/03 03:22:02;;;;;;;5.40;3.60;;;;;;;0.99;100.00;102982.91;5027230;28;20113;-65
2023/04/03 03:24:27;;;;;;;4.03;3.33;;;;;;;1.09;100.00;102985.78;5016067;28;20032;-64
2023/04/03 03:26:53;;;;;;;4.25;3.42;;;;;;;1.15;100.00;102993.44;5012597;28;20026;-65
2023/04/03 03:29:18;;;;;;;4.43;3.50;;;;;;;1.12;100.00;102988.28;5005425;28;20359;-65
2023/04/03 03:31:43;;;;;;;3.55;3.25;;;;;;;1.16;100.00;102990.59;5006362;28;20056;-64
2023/04/03 03:34:08;;;;;;;5.07;3.38;;;;;;;0.94;100.00;103001.34;5008808;28;20028;-64
2023/04/03 03:36:34;;;;;;;5.40;3.25;;;;;;;0.96;100.00;102999.38;5021782;28;20649;-65
2023/04/03 03:38:59;;;;;;;4.15;3.40;;;;;;;0.95;100.00;103000.34;5026136;28;20021;-65
2023/04/03 03:41:25;;;;;;;4.70;3.60;;;;;;;0.96;100.00;103004.78;5012795;28;20136;-65
2023/04/03 03:43:50;;;;;;;5.00;2.97;;;;;;;1.26;100.00;103004.31;5013943;28;20049;-64
2023/04/03 03:46:15;;;;;;;5.25;3.33;;;;;;;1.12;100.00;103004.50;5015209;28;20026;-65
2023/04/03 03:48:41;;;;;;;3.78;2.70;;;;;;;1.15;100.00;103004.25;5014029;28;20017;-65
2023/04/03 03:51:06;;;;;;;4.65;3.33;;;;;;;0.97;100.00;103010.09;4991698;28;20084;-64
2023/04/03 03:53:31;;;;;;;3.72;2.90;;;;;;;1.20;100.00;103007.47;5014342;28;20069;-65
2023/04/03 03:55:56;;;;;;;3.88;2.92;;;;;;;1.16;100.00;103008.69;5016723;28;20022;-65
2023/04/03 03:58:22;;;;;;;5.30;3.38;;;;;;;0.89;100.00;103015.19;5010675;28;20147;-65
2023/04/03 04:00:47;;;;;;;3.92;2.92;;;;;;;1.04;100.00;103019.47;5025845;28;20044;-65
2023/04/03 04:03:12;;;;;;;4.80;3.10;;;;;;;0.83;100.00;103022.91;5025202;28;20036;-65
2023/04/03 04:05:37;;;;;;;4.18;3.22;;;;;;;0.81;100.00;103020.31;5019660;28;20033;-65
2023/04/03 04:08:03;;;;;;;4.65;3.22;;;;;;;0.69;100.00;103022.06;5024343;28;20029;-65
2023/04/03 04:10:28;;;;;;;4.72;3.55;;;;;;;0.60;100.00;103013.78;5025538;28;20367;-65
2023/04/03 04:12:54;;;;;;;6.15;3.83;;;;;;;0.49;100.00;103020.84;5024310;28;20068;-64
2023/04/03 04:15:21;;;;;;;4.45;3.00;;;;;;;0.62;100.00;103015.41;5000016;28;20037;-65
2023/04/03 04:17:46;;;;;;;4.40;3.17;;;;;;;0.51;100.00;103027.00;5024721;28;20639;-64
2023/04/03 04:20:12;;;;;;;4.43;2.75;;;;;;;0.70;100.00;103029.22;5021998;28;20117;-65
2023/04/03 04:22:38;;;;;;;4.40;2.83;;;;;;;0.72;100.00;103026.41;5005526;28;20057;-65
2023/04/03 04:25:05;;;;;;;3.83;3.08;;;;;;;0.60;100.00;103025.44;5008759;28;20459;-65
2023/04/03 04:27:30;;;;;;;3.90;2.72;;;;;;;0.76;100.00;103023.38;5007091;28;20026;-65
2023/04/03 04:29:55;;;;;;;3.88;3.05;;;;;;;0.81;100.00;103023.00;5004541;28;20042;-65
2023/04/03 04:32:20;;;;;;;3.10;2.75;;;;;;;0.81;100.00;103016.72;5013255;28;20033;-65
2023/04/03 04:34:46;;;;;;;4.68;3.10;;;;;;;0.65;100.00;103012.47;5005545;28;20160;-65
2023/04/03 04:37:11;;;;;;;5.95;3.20;;;;;;;0.83;100.00;103014.81;5018078;28;20116;-65
2023/04/03 04:39:36;;;;;;;3.28;2.75;;;;;;;0.90;100.00;103021.47;5010228;28;20611;-64
2023/04/03 04:42:02;;;;;;;4.22;3.33;;;;;;;0.72;100.00;103021.88;5017095;28;20030;-65
2023/04/03 04:44:27;;;;;;;5.18;2.92;;;;;;;0.93;100.00;103021.25;5024324;28;20125;-65
2023/04/03 04:46:53;;;;;;;4.22;2.75;;;;;;;0.77;100.00;103027.81;5022679;28;20407;-65
2023/04/03 04:49:18;;;;;;;2.50;2.30;;;;;;;1.05;100.00;103023.03;4993002;28;20080;-65
2023/04/03 04:51:43;;;;;;;2.92;2.63;;;;;;;0.97;100.00;103023.63;5012233;28;20036;-65
2023/04/03 04:54:09;;;;;;;3.83;2.90;;;;;;;0.91;100.00;103034.00;5025632;28;20025;-65
2023/04/03 04:56:34;;;;;;;2.53;2.33;;;;;;;1.11;100.00;103037.94;5025310;28;20088;-65
2023/04/03 04:59:01;;;;;;;4.30;2.55;;;;;;;0.89;100.00;103035.97;5013529;28;20129;-67
2023/04/03 05:01:26;;;;;;;4.00;2.92;;;;;;;0.86;100.00;103038.91;5010812;28;20092;-65
2023/04/03 05:03:51;;;;;;;3.30;2.83;;;;;;;0.93;100.00;103040.19;5026589;28;20029;-64
2023/04/03 05:06:17;;;;;;;4.22;2.70;;;;;;;0.68;100.00;103039.28;5027414;28;20025;-65
2023/04/03 05:08:42;;;;;;;6.65;2.90;;;;;;;0.70;100.00;103044.56;5026465;28;20090;-65
2023/04/03 05:11:07;;;;;;;2.83;2.63;;;;;;;0.66;100.00;103052.06;5020798;28;20629;-65
2023/04/03 05:13:32;;;;;;;2.30;2.10;;;;;;;0.70;100.00;103048.13;5018326;28;20029;-64
2023/04/03 05:15:58;;;;;;;5.13;2.78;;;;;;;0.61;100.00;103050.66;5019167;28;20092;-65
2023/04/03 05:18:23;;;;;;;3.85;2.60;;;;;;;0.68;100.00;103052.81;5012560;28;20104;-65
2023/04/03 05:20:50;;;;;;;4.53;2.60;;;;;;;0.76;100.00;103044.13;5009664;28;20045;-64
2023/04/03 05:23:15;;;;;;;3.30;2.50;;;;;;;0.82;100.00;103053.66;5025922;28;20044;-64
2023/04/03 05:25:41;;;;;;;4.47;2.60;;;;;;;0.68;100.00;103052.81;5013298;28;20474;-65
2023/04/03 05:28:07;;;;;;;2.65;2.45;;;;;;;0.78;100.00;103056.56;5008645;28;20027;-65
2023/04/03 05:30:32;;;;;;;3.97;2.92;;;;;;;0.53;100.00;103053.94;5009380;28;20057;-65
2023/04/03 05:32:58;;;;;;;3.08;2.20;;;;;;;0.65;100.00;103049.47;5024735;28;20030;-65
2023/04/03 05:35:24;;;;;;;3.90;3.13;;;;;;;0.72;100.00;103050.75;5023041;28;20593;-65
2023/04/03 05:37:49;;;;;;;5.22;3.03;;;;;;;0.57;100.00;103057.28;5023445;28;20025;-65
2023/04/03 05:40:15;;;;;;;4.10;2.92;;;;;;;0.65;100.00;103058.44;5025017;28;20512;-65
2023/04/03 05:42:40;;;;;;;4.13;2.70;;;;;;;0.64;100.00;103067.53;5027207;28;20037;-65
2023/04/03 05:45:06;;;;;;;3.17;2.40;;;;;;;0.79;100.00;103062.84;5024269;28;20176;-65
2023/04/03 05:47:31;;;;;;;4.68;2.75;;;;;;;0.84;100.00;103055.25;5026779;28;20079;-65
2023/04/03 05:49:57;;;;;;;3.55;2.88;;;;;;;0.82;100.00;103062.63;5026788;28;20048;-65
2023/04/03 05:52:31;;;;;;;5.93;3.03;;;;;;;0.65;100.00;103069.25;5024266;28;20029;-65
2023/04/03 05:54:56;;;;;;;3.28;2.33;;;;;;;1.08;100.00;103074.22;5006373;28;20345;-65
2023/04/03 05:57:22;;;;;;;3.00;2.70;;;;;;;1.06;100.00;103075.31;5008337;28;20033;-64
2023/04/03 05:59:48;;;;;;;3.85;2.25;;;;;;;1.06;100.00;103080.72;5015587;28;20037;-65
2023/04/03 06:02:17;;;;;;;3.33;2.38;;;;;;;1.15;100.00;103078.19;5022581;28;20108;-65
2023/04/03 06:04:42;;;;;;;3.38;2.58;;;;;;;0.98;100.00;103074.03;5027309;28;20025;-66
2023/04/03 06:07:13;;;;;;;2.33;2.13;;;;;;;1.11;100.00;103073.97;5026521;28;20029;-65
2023/04/03 06:09:38;;;;;;;3.10;2.70;;;;;;;1.16;100.00;103070.94;5014084;28;20025;-65
2023/04/03 06:12:03;;;;;;;5.55;3.25;;;;;;;0.97;100.00;103072.31;5028251;28;20378;-65
2023/04/03 06:14:28;;;;;;;4.18;2.78;;;;;;;1.26;100.00;103080.09;5023080;28;20094;-65
2023/04/03 06:16:54;;;;;;;3.47;2.67;;;;;;;1.54;98.47;103079.75;5024527;28;20030;-65
2023/04/03 06:19:20;;;;;;;2.65;2.35;;;;;;;1.49;98.18;103081.94;5008565;28;20030;-65
2023/04/03 06:21:46;;;;;;;5.20;3.25;;;;;;;1.24;100.00;103091.03;5006448;28;20042;-65
2023/04/03 06:24:15;;;;;;;4.20;2.63;;;;;;;1.29;100.00;103088.00;5008127;28;20069;-65
2023/04/03 06:26:40;;;;;;;;;;;;;;;1.94;100.00;103090.22;5012725;28;20052;-65
2023/04/03 06:29:05;;;;;;;3.97;2.60;;;;;;;1.62;98.86;103089.13;5027250;28;20354;-65
2023/04/03 06:31:31;;;;;;;3.92;2.60;;;;;;;1.65;98.68;103084.34;5025696;28;20025;-64
2023/04/03 06:33:56;;;;;;;3.85;2.92;;;;;;;1.69;99.99;103087.69;5025186;28;20061;-65
2023/04/03 06:36:22;;;;;;;4.68;2.97;;;;;;;1.92;98.00;103097.59;5027914;28;20359;-65
2023/04/03 06:38:48;;;;;;;3.97;2.85;;;;;;;1.93;99.13;103095.78;5022264;28;20022;-64
2023/04/03 06:41:16;;;;;;;4.18;2.80;;;;;;;2.07;98.42;103099.13;5027811;28;20060;-65
2023/04/03 06:43:41;;;;;;;4.27;2.70;;;;;;;2.37;95.83;103096.81;5026404;28;20045;-65
2023/04/03 06:46:13;;;;;;;2.35;2.17;;;;;;;2.48;95.89;103089.56;5014673;28;20288;-65
2023/04/03 06:48:38;;;;;;;3.22;2.25;;;;;;;2.34;95.90;103095.25;5026511;28;20071;-65
2023/04/03 06:51:03;;;;;;;4.22;3.00;;;;;;;2.25;94.80;103099.53;5025154;28;20037;-65
2023/04/03 06:53:29;;;;;;;2.67;2.20;;;;;;;2.52;93.24;103106.44;5017182;28;20065;-64
2023/04/03 06:55:55;;;;;;;4.18;2.50;;;;;;;2.35;96.46;103105.09;4997321;28;20029;-65
2023/04/03 06:58:21;;;;;;;5.82;2.83;;;;;;;2.55;92.45;103107.09;4999343;28;20593;-64
2023/04/03 07:00:47;;;;;;;3.33;2.25;;;;;;;2.71;91.53;103111.28;4987830;28;20034;-64
2023/04/03 07:03:12;;;;;;;3.60;2.47;;;;;;;2.83;90.10;103104.84;5017836;28;20494;-64
2023/04/03 07:05:37;;;;;;;4.90;2.80;;;;;;;2.89;91.82;103115.22;4997028;28;20030;-64
2023/04/03 07:08:03;;;;;;;4.25;2.63;;;;;;;3.16;89.50;103106.66;5002561;28;20033;-65
2023/04/03 07:10:28;;;;;;;4.88;2.90;;;;;;;3.39;90.54;103105.59;4995481;28;20030;-65
2023/04/03 07:12:53;;;;;;;3.60;2.40;;;;;;;3.66;86.55;103109.72;5009245;28;20068;-65
2023/04/03 07:15:19;;;;;;;3.40;2.38;;;;;;;3.89;86.49;103111.31;4990440;28;20025;-64
2023/04/03 07:17:44;;;;;;;3.58;2.30;;;;;;;4.14;84.93;103112.78;4974110;28;20036;-64
2023/04/03 07:20:10;;;;;;;4.43;2.30;;;;;;;4.33;84.53;103108.47;4988099;28;20033;-65
2023/04/03 07:22:35;;;;;;;5.38;2.55;;;;;;;4.34;83.66;103111.06;4995472;28;20057;-65
2023/04/03 07:25:01;;;;;;;2.53;1.90;;;;;;;4.27;84.45;103119.91;5011426;28;20036;-64
2023/04/03 07:27:26;;;;;;;4.35;2.13;;;;;;;4.30;83.91;103122.34;5002646;28;20030;-64
2023/04/03 07:29:51;;;;;;;1.80;1.70;;;;;;;4.84;80.63;103119.34;5003336;28;20044;-65
2023/04/03 07:32:17;;;;;;;2.90;1.92;;;;;;;4.94;78.84;103124.81;4990167;28;20421;-64
2023/04/03 07:34:43;;;;;;;2.92;2.20;;;;;;;5.37;78.08;103118.19;4978827;28;20165;-65
2023/04/03 07:37:09;;;;;;;3.78;2.20;;;;;;;5.53;77.26;103114.94;4991545;28;20022;-64
2023/04/03 07:39:35;;;;;;;4.05;2.20;;;;;;;5.79;75.47;103121.53;4982412;28;20034;-65
2023/04/03 07:42:01;;;;;;;2.45;1.80;;;;;;;6.38;75.19;103116.88;4988042;28;20049;-65
2023/04/03 07:44:27;;;;;;;3.50;2.03;;;;;;;6.88;73.55;103131.09;4986742;28;20022;-64
2023/04/03 07:46:52;;;;;;;3.30;1.92;;;;;;;7.25;69.62;103135.69;4985536;28;20037;-65
2023/04/03 07:49:18;;;;;;;3.08;1.80;;;;;;;7.73;67.79;103120.78;4994622;28;20030;-65
2023/04/03 07:51:44;;;;;;;2.58;1.60;;;;;;;8.11;65.74;103126.94;4995241;28;20110;-65
2023/04/03 07:54:09;;;;;;;3.28;1.90;;;;;;;8.06;65.30;103130.19;5001306;28;20068;-65
2023/04/03 07:56:34;;;;;;;1.80;1.60;;;;;;;8.08;63.89;103128.13;4990028;28;20058;-65
2023/04/03 07:59:00;;;;;;;5.07;1.80;;;;;;;7.26;67.31;103135.50;4996184;28;20396;-64
2023/04/03 08:01:25;;;;;;;3.40;1.83;;;;;;;7.22;68.99;103145.03;4999638;28;20484;-65
2023/04/03 08:03:51;;;;;;;4.57;2.47;;;;;;;7.92;64.13;103136.19;5004347;28;20034;-65
2023/04/03 08:06:16;;;;;;;4.15;1.92;;;;;;;7.48;63.83;103147.03;5004955;28;20136;-65
2023/04/03 08:08:42;;;;;;;3.72;2.05;;;;;;;6.93;64.69;103138.84;4991349;28;20060;-64
2023/04/03 08:11:08;;;;;;;2.42;1.77;;;;;;;6.23;68.44;103147.41;4992210;28;20116;-65
2023/04/03 08:13:35;;;;;;;4.07;1.85;;;;;;;6.00;68.26;103145.09;4996678;28;20148;-65
2023/04/03 08:16:09;;;;;;;2.67;1.67;;;;;;;6.41;68.66;103147.50;4991447;28;20101;-64
2023/04/03 08:18:34;;;;;;;2.22;1.40;;;;;;;6.32;67.02;103144.78;4978959;28;20034;-65
2023/04/03 08:21:00;;;;;;;2.08;1.58;;;;;;;6.29;65.18;103143.22;4998862;28;20072;-65
2023/04/03 08:23:26;;;;;;;2.47;1.50;;;;;;;6.04;68.25;103147.41;5018328;28;20947;-65
2023/04/03 08:25:51;;;;;;;3.08;1.95;;;;;;;6.56;64.11;103147.03;5010118;28;20103;-66
2023/04/03 08:28:16;;;;;;;3.28;1.85;;;;;;;5.98;64.81;103151.56;5012175;28;20018;-65
2023/04/03 08:30:42;;;;;;;3.33;2.10;;;;;;;5.98;67.29;103156.13;5002293;28;20036;-65
2023/04/03 08:33:08;;;;;;;4.28;2.03;;;;;;;6.06;65.92;103145.38;5010797;28;20036;-65
2023/04/03 08:35:37;;;;;;;3.50;1.80;;;;;;;6.03;64.06;103145.66;5024748;28;20104;-64
2023/04/03 08:38:02;;;;;;;2.80;1.80;;;;;;;6.35;64.17;103145.34;5027958;28;20121;-65
2023/04/03 08:40:28;;;;;;;2.25;1.42;;;;;;;6.92;64.17;103150.78;4995740;28;20105;-65
2023/04/03 08:42:56;;;;;;;2.42;1.40;;;;;;;7.35;62.05;103144.69;5003972;28;20479;-65
2023/04/03 08:45:35;;;;;;;2.95;1.75;;;;;;;7.92;61.40;103147.16;5007486;28;20044;-66
2023/04/03 08:48:07;;;;;;;2.88;1.58;;;;;;;8.49;57.49;103151.22;5003392;28;20038;-65
2023/04/03 08:50:46;;;;;;;2.70;1.58;;;;;;;9.60;53.18;103148.50;4999646;28;20447;-66
2023/04/03 08:53:18;;;;;;;2.70;1.55;;;;;;;9.57;47.44;103146.94;4999248;28;20013;-65
2023/04/03 08:55:48;;;;;;;2.15;1.45;;;;;;;9.90;48.84;103151.63;5008434;28;20025;-65
2023/04/03 08:58:22;;;;;;;2.72;1.55;;;;;;;10.28;47.07;103145.47;5021277;28;20028;-66
2023/04/03 09:01:01;;;;;;;4.03;1.48;;;;;;;10.22;48.08;103159.03;5006343;28;20044;-65
2023/04/03 09:03:32;;;;;;;1.80;1.33;;;;;;;10.76;46.39;103154.69;5001989;28;20184;-65
2023/04/03 09:06:10;;;;;;;2.22;1.20;;;;;;;10.95;40.35;103147.06;4996774;28;20048;-66
2023/04/03 09:08:43;;;;;;;1.67;1.30;;;;;;;10.82;41.64;103155.88;4973729;28;20037;-65
2023/04/03 09:11:21;;;;;;;2.33;1.25;;;;;;;10.79;40.62;103156.22;4989457;28;20041;-66
2023/04/03 09:14:05;;;;;;;;;;;;;;;11.68;38.77;103149.47;4991418;28;20030;-65
2023/04/03 09:16:53;;;;;;;1.80;1.02;;;;;;;12.71;35.67;103144.31;4993542;28;19917;-65
2023/04/03 09:19:28;;;;;;;1.75;1.20;;;;;;;13.73;32.77;103149.91;4991522;28;20030;-65
2023/04/03 09:22:16;;;;;;;2.72;1.10;;;;;;;14.84;32.66;103158.59;4994069;28;20138;-65
2023/04/03 09:24:45;;;;;;;2.47;1.20;;;;;;;15.50;29.62;103158.09;4990975;28;20049;-65
2023/04/03 09:27:11;;;;;;;1.20;0.82;;;;;;;15.31;30.38;103168.03;4989341;28;20057;-65
2023/04/03 09:29:43;;;;;;;1.88;0.70;;;;;;;15.44;30.36;103150.59;4992013;28;20390;-66
2023/04/03 09:32:23;;;;;;;1.27;1.00;;;;;;;14.57;28.72;103160.31;4976200;28;20346;-65
2023/04/03 09:34:51;;;;;;;1.98;1.02;;;;;;;13.37;29.74;103157.34;4992593;28;20479;-65
2023/04/03 09:37:53;;;;;;;2.15;0.80;;;;;;;13.33;31.01;103159.66;4991312;28;20478;-65
2023/04/03 09:40:34;;;;;;;1.13;0.90;;;;;;;13.13;32.27;103150.22;4927870;28;20583;-65
2023/04/03 09:43:19;;;;;;;0.98;0.80;;;;;;;14.07;29.46;103148.38;4989303;28;20172;-64
2023/04/03 09:45:47;;;;;;;1.13;0.90;;;;;;;14.85;28.12;103148.38;5007466;28;20029;-65
2023/04/03 09:48:12;;;;;;;0.98;0.80;;;;;;;15.04;27.73;103140.19;4989676;28;20029;-64
2023/04/03 09:50:38;;;;;;;1.55;0.77;;;;;;;13.70;28.30;103138.44;4993883;28;20506;-63
2023/04/03 09:53:07;;;;;;;1.27;0.80;;;;;;;13.71;28.66;103126.31;4990140;28;20025;-64
2023/04/03 09:55:41;;;;;;;1.02;0.80;;;;;;;13.01;27.66;103130.53;4989340;28;20053;-65
2023/04/03 09:58:24;;;;;;;1.38;0.75;;;;;;;13.68;29.15;103122.03;4990143;28;20030;-65
2023/04/03 10:00:58;;;;;;;1.35;0.90;;;;;;;14.74;28.04;103122.13;4990302;28;20504;-64
2023/04/03 10:03:36;;;;;;;1.55;0.68;;;;;;;14.98;26.10;103124.41;4994730;28;20038;-66
2023/04/03 10:06:04;;;;;;;1.10;0.82;;;;;;;14.03;25.74;103125.78;4990476;28;20029;-65
2023/04/03 10:08:34;;;;;;;2.00;0.90;;;;;;;13.56;25.12;103128.28;4985358;28;20437;-63
2023/04/03 10:11:18;;;;;;;1.15;0.80;;;;;;;14.61;27.34;103122.91;4991271;28;20045;-64
2023/04/03 10:14:16;;;;;;;2.35;0.90;;;;;;;15.72;25.57;103118.13;4994383;28;20038;-65
2023/04/03 10:16:48;;;;;;;1.02;0.80;;;;;;;16.16;23.57;103116.69;4991713;28;20729;-64
2023/04/03 10:19:24;;;;;;;0.75;0.60;;;;;;;15.79;22.76;103110.69;4989034;28;20065;-64
2023/04/03 10:22:10;;;;;;;0.88;0.60;;;;;;;15.56;24.58;103121.25;4988286;28;20058;-64
2023/04/03 10:24:53;;;;;;;1.60;0.70;;;;;;;15.57;23.93;103112.75;5002430;28;20575;-65
2023/04/03 10:27:42;;;;;;;1.17;0.60;;;;;;;15.78;24.02;103114.53;5014120;28;20025;-65
2023/04/03 10:30:34;;;;;;;0.88;0.70;;;;;;;16.12;24.16;103090.47;5009581;28;20037;-65
2023/04/03 10:33:41;;;;;;;1.02;0.55;;;;;;;16.99;25.64;103094.84;5005984;28;20030;-65
2023/04/03 10:36:18;;;;;;;0.50;0.50;;;;;;;16.97;22.64;103085.84;5009143;28;20376;-64
2023/04/03 10:39:01;;;;;;;0.75;0.50;;;;;;;17.05;22.75;103090.31;5000051;28;20058;-64
2023/04/03 10:41:54;;;;;;;1.30;0.60;;;;;;;16.99;23.91;103085.66;5005451;28;20546;-64
2023/04/03 10:44:30;;;;;;;0.88;0.50;;;;;;;17.07;21.95;103074.28;4990744;28;20089;-65
2023/04/03 10:47:12;;;;;;;2.05;0.82;;;;;;;16.29;24.24;103074.25;5002571;28;20045;-65
2023/04/03 10:49:56;;;;;;;1.13;0.50;;;;;;;15.83;22.68;103075.09;5016170;28;20037;-64
2023/04/03 10:52:30;;;;;;;0.68;0.68;;;;;;;15.98;23.67;103086.84;5018059;28;20080;-64
2023/04/03 10:55:14;;;;;;;0.68;0.68;;;;;;;16.48;22.48;103076.16;5014378;28;20022;-65
2023/04/03 10:57:40;;;;;;;1.13;0.68;;;;;;;16.33;22.08;103090.25;5005890;28;20105;-64
2023/04/03 11:00:16;;;;;;;1.38;0.70;;;;;;;15.93;22.52;103075.53;5007043;28;20373;-64
2023/04/03 11:02:53;;;;;;;2.53;0.90;;;;;;;16.55;23.89;103079.75;5016230;28;20037;-65
2023/04/03 11:05:32;;;;;;;1.35;0.77;;;;;;;17.12;23.51;103069.78;5007984;28;20365;-65
2023/04/03 11:08:03;;;;;;;1.33;0.70;;;;;;;17.22;22.36;103072.09;5006574;28;20026;-65
2023/04/03 11:10:37;;;;;;;1.58;0.88;;;;;;;16.54;21.91;103063.34;5004620;28;20030;-65
2023/04/03 11:13:21;;;;;;;2.20;0.82;;;;;;;16.11;23.65;103074.03;5014168;28;20061;-65
2023/04/03 11:15:46;;;;;;;1.30;0.82;;;;;;;16.15;24.05;103058.69;5006113;28;20408;-65
2023/04/03 11:18:25;;;;;;;1.17;0.90;;;;;;;16.78;24.35;103065.44;5017731;28;20032;-64
2023/04/03 11:21:24;;;;;;;1.58;0.80;;;;;;;17.49;23.90;103056.16;5015016;28;20634;-64
2023/04/03 11:23:51;;;;;;;1.95;0.90;;;;;;;17.92;23.71;103051.81;4976919;28;20122;-65
2023/04/03 11:26:29;;;;;;;1.47;0.83;;;;;;;18.31;23.36;103047.81;5007163;28;20654;-65
2023/04/03 11:29:13;;;;;;;1.65;1.20;;;;;;;18.82;23.68;103043.88;4987198;28;20394;-65
2023/04/03 11:32:00;;;;;;;1.30;0.90;;;;;;;17.57;21.86;103041.97;5005450;28;20036;-64
2023/04/03 11:34:45;;;;;;;2.00;0.93;;;;;;;16.20;23.18;103037.56;5005678;28;20044;-65